createdAt,value
2023-02-27T00:01:33.439Z,2.25
2023-02-27T00:04:03.760Z,2.25
2023-02-27T00:06:33.745Z,2.24
2023-02-27T00:09:07.180Z,2.21
2023-02-27T00:11:38.689Z,2.14
2023-02-27T00:14:11.578Z,2.08
2023-02-27T00:16:41.336Z,2.03
2023-02-27T00:19:11.375Z,2.02
2023-02-27T00:21:41.330Z,2.02
2023-02-27T00:24:14.388Z,1.99
2023-02-27T00:26:44.518Z,1.95
2023-02-27T00:29:14.794Z,1.92
2023-02-27T00:31:45.101Z,1.81
2023-02-27T00:34:15.825Z,1.74
2023-02-27T00:36:45.859Z,1.64
2023-02-27T00:39:18.384Z,1.60
2023-02-27T00:41:48.327Z,1.59
2023-02-27T00:44:18.175Z,1.60
2023-02-27T00:46:48.319Z,1.59
2023-02-27T00:49:19.844Z,1.60
2023-02-27T00:51:49.689Z,1.58
2023-02-27T00:54:22.268Z,1.58
2023-02-27T00:56:52.052Z,1.54
2023-02-27T00:59:22.062Z,1.53
2023-02-27T01:01:52.306Z,1.54
2023-02-27T01:04:22.218Z,1.55
2023-02-27T01:06:52.035Z,1.53
2023-02-27T01:09:25.169Z,1.52
2023-02-27T01:11:55.629Z,1.48
2023-02-27T01:14:25.614Z,1.47
2023-02-27T01:16:55.973Z,1.43
2023-02-27T01:19:25.853Z,1.40
2023-02-27T01:21:56.300Z,1.37
2023-02-27T01:24:28.723Z,1.37
2023-02-27T01:26:58.987Z,1.35
2023-02-27T01:29:28.849Z,1.33
2023-02-27T01:31:58.972Z,1.31
2023-02-27T01:34:29.305Z,1.27
2023-02-27T01:36:59.275Z,1.25
2023-02-27T01:39:33.134Z,1.23
2023-02-27T01:42:03.193Z,1.22
2023-02-27T01:44:34.598Z,1.21
2023-02-27T01:47:04.435Z,1.16
2023-02-27T01:49:37.515Z,1.14
2023-02-27T01:52:10.350Z,1.10
2023-02-27T01:54:44.693Z,1.08
2023-02-27T01:57:15.995Z,1.07
2023-02-27T01:59:46.700Z,1.08
2023-02-27T02:02:23.366Z,1.08
2023-02-27T02:04:54.408Z,1.07
2023-02-27T02:07:25.486Z,1.06
2023-02-27T02:10:03.582Z,1.04
2023-02-27T02:12:37.303Z,1.07
2023-02-27T02:15:08.918Z,1.09
2023-02-27T02:17:48.210Z,1.08
2023-02-27T02:20:56.864Z,1.05
2023-02-27T02:24:08.239Z,1.04
2023-02-27T02:27:01.076Z,1.01
2023-02-27T02:30:00.625Z,1.00
2023-02-27T02:33:06.036Z,0.97
2023-02-27T02:36:10.704Z,0.94
2023-02-27T02:39:10.500Z,0.91
2023-02-27T02:41:56.271Z,0.89
2023-02-27T02:44:35.263Z,0.88
2023-02-27T02:47:09.036Z,0.87
2023-02-27T02:49:48.867Z,0.85
2023-02-27T02:52:26.946Z,0.80
2023-02-27T02:55:02.935Z,0.77
2023-02-27T02:57:40.917Z,0.73
2023-02-27T03:00:18.750Z,0.69
2023-02-27T03:02:52.510Z,0.68
2023-02-27T03:05:27.970Z,0.63
2023-02-27T03:08:03.267Z,0.57
2023-02-27T03:10:36.664Z,0.52
2023-02-27T03:13:18.153Z,0.46
2023-02-27T03:15:53.574Z,0.43
2023-02-27T03:18:28.796Z,0.41
2023-02-27T03:21:01.756Z,0.40
2023-02-27T03:23:36.628Z,0.36
2023-02-27T03:26:08.093Z,0.35
2023-02-27T03:28:44.043Z,0.30
2023-02-27T03:31:22.185Z,0.25
2023-02-27T03:33:57.677Z,0.23
2023-02-27T03:36:37.796Z,0.20
2023-02-27T03:39:14.617Z,0.20
2023-02-27T03:41:50.721Z,0.18
2023-02-27T03:44:31.704Z,0.19
2023-02-27T03:47:02.074Z,0.20
2023-02-27T03:49:31.896Z,0.17
2023-02-27T03:52:01.955Z,0.14
2023-02-27T03:54:36.510Z,0.16
2023-02-27T03:57:08.056Z,0.18
2023-02-27T03:59:41.510Z,0.23
2023-02-27T04:02:11.828Z,0.28
2023-02-27T04:04:41.667Z,0.33
2023-02-27T04:07:26.548Z,0.39
2023-02-27T04:10:22.400Z,0.39
2023-02-27T04:13:21.144Z,0.34
2023-02-27T04:16:17.902Z,0.27
2023-02-27T04:18:59.269Z,0.23
2023-02-27T04:21:37.948Z,0.21
2023-02-27T04:24:16.402Z,0.18
2023-02-27T04:26:51.248Z,0.16
2023-02-27T04:29:27.576Z,0.15
2023-02-27T04:32:05.411Z,0.12
2023-02-27T04:34:41.250Z,0.11
2023-02-27T04:37:15.947Z,0.09
2023-02-27T04:39:53.522Z,0.10
2023-02-27T04:42:27.773Z,0.11
2023-02-27T04:45:00.910Z,0.09
2023-02-27T04:47:38.393Z,0.03
2023-02-27T04:50:12.858Z,0.02
2023-02-27T04:52:47.590Z,0.01
2023-02-27T04:55:22.942Z,-0.01
2023-02-27T04:57:56.702Z,-0.05
2023-02-27T05:00:29.738Z,-0.05
2023-02-27T05:03:08.706Z,-0.11
2023-02-27T05:05:41.482Z,-0.13
2023-02-27T05:08:17.322Z,-0.13
2023-02-27T05:10:52.323Z,-0.14
2023-02-27T05:13:27.983Z,-0.13
2023-02-27T05:16:03.034Z,-0.11
2023-02-27T05:18:35.709Z,-0.09
2023-02-27T05:21:13.122Z,-0.09
2023-02-27T05:23:47.779Z,-0.09
2023-02-27T05:26:21.208Z,-0.10
2023-02-27T05:28:58.253Z,-0.09
2023-02-27T05:31:32.728Z,-0.10
2023-02-27T05:34:13.259Z,-0.13
2023-02-27T05:36:49.110Z,-0.13
2023-02-27T05:39:24.289Z,-0.13
2023-02-27T05:42:00.164Z,-0.13
2023-02-27T05:44:35.176Z,-0.12
2023-02-27T05:47:08.921Z,-0.10
2023-02-27T05:49:46.838Z,-0.07
2023-02-27T05:52:22.015Z,-0.02
2023-02-27T05:54:56.557Z,-0.01
2023-02-27T05:57:31.577Z,0.03
2023-02-27T06:00:06.025Z,0.04
2023-02-27T06:02:36.167Z,-0.01
2023-02-27T06:05:09.923Z,-0.06
2023-02-27T06:07:40.286Z,-0.11
2023-02-27T06:10:11.346Z,-0.15
2023-02-27T06:12:41.174Z,-0.22
2023-02-27T06:15:12.082Z,-0.23
2023-02-27T06:17:42.360Z,-0.23
2023-02-27T06:20:15.756Z,-0.22
2023-02-27T06:22:45.581Z,-0.23
2023-02-27T06:25:15.743Z,-0.25
2023-02-27T06:27:45.904Z,-0.25
2023-02-27T06:30:16.771Z,-0.24
2023-02-27T06:32:46.546Z,-0.28
2023-02-27T06:35:19.535Z,-0.31
2023-02-27T06:37:49.341Z,-0.35
2023-02-27T06:40:19.918Z,-0.38
2023-02-27T06:42:49.804Z,-0.39
2023-02-27T06:45:20.788Z,-0.43
2023-02-27T06:47:50.928Z,-0.44
2023-02-27T06:50:23.675Z,-0.43
2023-02-27T06:52:53.412Z,-0.44
2023-02-27T06:55:25.571Z,-0.43
2023-02-27T06:57:58.545Z,-0.40
2023-02-27T07:00:29.660Z,-0.39
2023-02-27T07:02:59.534Z,-0.39
2023-02-27T07:05:32.194Z,-0.41
2023-02-27T07:08:03.445Z,-0.42
2023-02-27T07:10:34.389Z,-0.43
2023-02-27T07:13:04.554Z,-0.41
2023-02-27T07:15:34.395Z,-0.40
2023-02-27T07:18:04.216Z,-0.39
2023-02-27T07:20:37.083Z,-0.38
2023-02-27T07:23:07.157Z,-0.37
2023-02-27T07:25:36.967Z,-0.35
2023-02-27T07:28:07.206Z,-0.32
2023-02-27T07:30:39.480Z,-0.30
2023-02-27T07:33:09.306Z,-0.26
2023-02-27T07:35:41.867Z,-0.24
2023-02-27T07:38:11.712Z,-0.22
2023-02-27T07:40:42.060Z,-0.16
2023-02-27T07:43:11.845Z,-0.10
2023-02-27T07:45:41.664Z,0.00
2023-02-27T07:48:11.476Z,0.09
2023-02-27T07:50:43.971Z,0.20
2023-02-27T07:53:13.735Z,0.36
2023-02-27T07:55:43.625Z,0.58
2023-02-27T07:58:13.526Z,0.82
2023-02-27T08:00:43.322Z,1.11
2023-02-27T08:03:13.738Z,1.42
2023-02-27T08:05:46.234Z,1.71
2023-02-27T08:08:16.375Z,2.00
2023-02-27T08:10:46.223Z,2.28
2023-02-27T08:13:20.612Z,2.53
2023-02-27T08:15:50.537Z,2.79
2023-02-27T08:18:20.378Z,2.97
2023-02-27T08:20:53.131Z,3.04
2023-02-27T08:23:23.055Z,3.13
2023-02-27T08:25:53.116Z,3.23
2023-02-27T08:28:23.283Z,3.31
2023-02-27T08:30:53.145Z,3.32
2023-02-27T08:33:23.014Z,3.32
2023-02-27T08:35:55.962Z,3.24
2023-02-27T08:38:26.538Z,3.15
2023-02-27T08:40:56.540Z,3.07
2023-02-27T08:43:26.869Z,3.00
2023-02-27T08:45:56.678Z,2.94
2023-02-27T08:48:26.637Z,2.83
2023-02-27T08:50:59.814Z,2.76
2023-02-27T08:53:30.052Z,2.71
2023-02-27T08:55:59.983Z,2.73
2023-02-27T08:58:30.188Z,2.72
2023-02-27T09:01:00.175Z,2.73
2023-02-27T09:03:30.131Z,2.72
2023-02-27T09:06:03.587Z,2.73
2023-02-27T09:08:33.475Z,2.74
2023-02-27T09:11:05.761Z,2.76
2023-02-27T09:13:35.652Z,2.76
2023-02-27T09:16:05.556Z,2.79
2023-02-27T09:18:35.774Z,2.85
2023-02-27T09:21:10.770Z,2.84
2023-02-27T09:23:40.634Z,2.93
2023-02-27T09:26:11.644Z,2.99
2023-02-27T09:28:42.453Z,3.07
2023-02-27T09:31:13.329Z,3.17
2023-02-27T09:33:43.166Z,3.24
2023-02-27T09:36:16.360Z,3.35
2023-02-27T09:38:46.274Z,3.42
2023-02-27T09:41:41.469Z,3.50
2023-02-27T09:44:33.599Z,3.62
2023-02-27T09:47:08.173Z,3.79
2023-02-27T09:49:50.985Z,3.87
2023-02-27T09:52:23.427Z,4.01
2023-02-27T09:54:54.609Z,4.13
2023-02-27T09:57:35.607Z,4.27
2023-02-27T10:00:10.530Z,4.42
2023-02-27T10:02:54.364Z,4.54
2023-02-27T10:05:35.797Z,4.72
2023-02-27T10:08:16.936Z,4.83
2023-02-27T10:10:52.297Z,4.94
2023-02-27T10:13:44.458Z,4.96
2023-02-27T10:16:17.020Z,5.08
2023-02-27T10:18:58.282Z,5.18
2023-02-27T10:21:34.219Z,5.32
2023-02-27T10:24:15.816Z,5.43
2023-02-27T10:26:49.929Z,5.54
2023-02-27T10:29:26.553Z,5.69
2023-02-27T10:32:03.254Z,5.92
2023-02-27T10:34:34.532Z,6.02
2023-02-27T10:37:06.841Z,6.15
2023-02-27T10:39:48.476Z,6.11
2023-02-27T10:42:20.218Z,6.15
2023-02-27T10:44:53.692Z,6.22
2023-02-27T10:47:26.133Z,6.21
2023-02-27T10:50:00.497Z,6.30
2023-02-27T10:52:30.441Z,6.30
2023-02-27T10:55:21.409Z,6.24
2023-02-27T10:57:52.330Z,6.26
2023-02-27T11:00:46.255Z,6.16
2023-02-27T11:03:23.679Z,6.14
2023-02-27T11:05:59.971Z,6.10
2023-02-27T11:08:32.812Z,6.18
2023-02-27T11:11:09.499Z,6.26
2023-02-27T11:13:41.988Z,6.32
2023-02-27T11:16:15.642Z,6.39
2023-02-27T11:18:47.623Z,6.45
2023-02-27T11:21:26.648Z,6.55
2023-02-27T11:24:02.532Z,6.61
2023-02-27T11:26:38.201Z,6.63
2023-02-27T11:29:11.823Z,6.75
2023-02-27T11:31:42.917Z,6.87
2023-02-27T11:34:22.697Z,6.90
2023-02-27T11:36:56.045Z,6.98
2023-02-27T11:39:33.483Z,6.97
2023-02-27T11:42:17.710Z,6.94
2023-02-27T11:44:59.567Z,6.92
2023-02-27T11:47:34.799Z,7.04
2023-02-27T11:50:26.378Z,7.06
2023-02-27T11:53:00.927Z,7.04
2023-02-27T11:55:31.766Z,7.03
2023-02-27T11:58:08.040Z,6.99
2023-02-27T12:00:45.610Z,7.05
2023-02-27T12:03:23.954Z,7.07
2023-02-27T12:05:57.425Z,7.14
2023-02-27T12:08:36.750Z,7.11
2023-02-27T12:11:14.968Z,7.22
2023-02-27T12:13:52.446Z,7.27
2023-02-27T12:16:31.683Z,7.28
2023-02-27T12:19:09.135Z,7.26
2023-02-27T12:21:45.177Z,7.31
2023-02-27T12:24:24.203Z,7.35
2023-02-27T12:27:01.005Z,7.33
2023-02-27T12:29:39.402Z,7.37
2023-02-27T12:32:19.525Z,7.25
2023-02-27T12:34:53.080Z,7.30
2023-02-27T12:37:26.829Z,7.19
2023-02-27T12:39:59.022Z,7.25
2023-02-27T12:42:45.157Z,7.23
2023-02-27T12:45:32.065Z,7.24
2023-02-27T12:48:16.530Z,7.24
2023-02-27T12:50:52.905Z,7.35
2023-02-27T12:53:40.241Z,7.31
2023-02-27T12:56:18.197Z,7.34
2023-02-27T12:58:58.822Z,7.36
2023-02-27T13:01:42.704Z,7.36
2023-02-27T13:04:26.637Z,7.33
2023-02-27T13:07:04.482Z,7.37
2023-02-27T13:09:43.887Z,7.37
2023-02-27T13:12:28.531Z,7.40
2023-02-27T13:15:02.940Z,7.45
2023-02-27T13:17:42.502Z,7.42
2023-02-27T13:20:29.241Z,7.36
2023-02-27T13:23:08.245Z,7.34
2023-02-27T13:25:40.941Z,7.33
2023-02-27T13:28:17.028Z,7.39
2023-02-27T13:30:52.473Z,7.49
2023-02-27T13:33:34.701Z,7.51
2023-02-27T13:36:13.974Z,7.49
2023-02-27T13:38:46.893Z,7.54
2023-02-27T13:41:38.663Z,7.49
2023-02-27T13:44:50.004Z,7.43
2023-02-27T13:47:41.957Z,7.41
2023-02-27T13:50:41.787Z,7.52
2023-02-27T13:53:20.858Z,7.53
2023-02-27T13:55:50.929Z,7.48
2023-02-27T13:58:24.778Z,7.43
2023-02-27T14:01:05.739Z,7.40
2023-02-27T14:03:35.882Z,7.33
2023-02-27T14:06:08.270Z,7.33
2023-02-27T14:08:54.191Z,7.36
2023-02-27T14:11:28.038Z,7.44
2023-02-27T14:14:03.496Z,7.44
2023-02-27T14:16:58.806Z,7.44
2023-02-27T14:19:51.140Z,7.47
2023-02-27T14:22:40.858Z,7.35
2023-02-27T14:25:24.813Z,7.40
2023-02-27T14:27:57.895Z,7.54
2023-02-27T14:30:35.290Z,7.52
2023-02-27T14:33:19.468Z,7.54
2023-02-27T14:35:59.539Z,7.62
2023-02-27T14:38:31.102Z,7.72
2023-02-27T14:41:15.857Z,7.65
2023-02-27T14:43:55.322Z,7.81
2023-02-27T14:46:28.744Z,8.00
2023-02-27T14:49:02.103Z,8.14
2023-02-27T14:51:36.474Z,8.16
2023-02-27T14:54:17.201Z,8.14
2023-02-27T14:57:04.584Z,7.95
2023-02-27T14:59:37.215Z,7.94
2023-02-27T15:02:17.243Z,7.81
2023-02-27T15:04:48.661Z,7.67
2023-02-27T15:07:26.922Z,7.62
2023-02-27T15:09:59.186Z,7.52
2023-02-27T15:12:33.353Z,7.57
2023-02-27T15:15:06.123Z,7.70
2023-02-27T15:17:42.177Z,7.75
2023-02-27T15:20:27.636Z,7.76
2023-02-27T15:22:57.643Z,7.76
2023-02-27T15:25:33.317Z,7.77
2023-02-27T15:28:08.485Z,7.74
2023-02-27T15:30:38.408Z,7.83
2023-02-27T15:33:17.670Z,7.90
2023-02-27T15:35:51.816Z,7.84
2023-02-27T15:38:29.988Z,7.79
2023-02-27T15:41:01.458Z,7.79
2023-02-27T15:43:34.751Z,7.66
2023-02-27T15:46:04.857Z,7.59
2023-02-27T15:48:35.892Z,7.53
2023-02-27T15:51:07.524Z,7.47
2023-02-27T15:53:39.921Z,7.39
2023-02-27T15:56:15.039Z,7.33
2023-02-27T15:58:54.190Z,7.33
2023-02-27T16:01:27.596Z,7.38
2023-02-27T16:03:59.288Z,7.38
2023-02-27T16:06:32.374Z,7.43
2023-02-27T16:09:04.834Z,7.42
2023-02-27T16:11:41.284Z,7.33
2023-02-27T16:14:48.864Z,7.37
2023-02-27T16:17:32.536Z,7.37
2023-02-27T16:20:05.827Z,7.36
2023-02-27T16:22:39.428Z,7.29
2023-02-27T16:25:14.465Z,7.21
2023-02-27T16:27:52.783Z,7.17
2023-02-27T16:30:25.677Z,7.10
2023-02-27T16:33:06.404Z,7.04
2023-02-27T16:35:39.461Z,6.98
2023-02-27T16:38:09.533Z,6.91
2023-02-27T16:40:39.367Z,6.82
2023-02-27T16:43:09.434Z,6.84
2023-02-27T16:45:53.522Z,6.73
2023-02-27T16:48:26.019Z,6.74
2023-02-27T16:50:55.962Z,6.73
2023-02-27T16:53:26.060Z,6.72
2023-02-27T16:55:55.985Z,6.70
2023-02-27T16:58:26.001Z,6.65
2023-02-27T17:00:58.604Z,6.58
2023-02-27T17:03:28.491Z,6.52
2023-02-27T17:05:58.374Z,6.49
2023-02-27T17:08:28.771Z,6.48
2023-02-27T17:10:58.765Z,6.43
2023-02-27T17:13:28.613Z,6.42
2023-02-27T17:16:01.083Z,6.34
2023-02-27T17:18:30.876Z,6.32
2023-02-27T17:21:03.154Z,6.31
2023-02-27T17:23:33.020Z,6.27
2023-02-27T17:26:02.806Z,6.21
2023-02-27T17:28:33.062Z,6.20
2023-02-27T17:31:10.808Z,6.13
2023-02-27T17:33:43.340Z,6.15
2023-02-27T17:36:14.272Z,6.12
2023-02-27T17:38:44.090Z,6.06
2023-02-27T17:41:16.554Z,6.01
2023-02-27T17:43:46.415Z,5.93
2023-02-27T17:46:18.920Z,5.90
2023-02-27T17:48:48.825Z,5.86
2023-02-27T17:51:20.337Z,5.84
2023-02-27T17:53:50.299Z,5.78
2023-02-27T17:56:20.583Z,5.73
2023-02-27T17:58:50.331Z,5.70
2023-02-27T18:01:26.310Z,5.65
2023-02-27T18:03:57.704Z,5.62
2023-02-27T18:06:28.898Z,5.60
2023-02-27T18:09:02.035Z,5.58
2023-02-27T18:11:35.229Z,5.50
2023-02-27T18:14:05.026Z,5.47
2023-02-27T18:16:40.772Z,5.45
2023-02-27T18:19:10.900Z,5.43
2023-02-27T18:21:42.582Z,5.38
2023-02-27T18:24:12.441Z,5.33
2023-02-27T18:26:42.935Z,5.32
2023-02-27T18:29:18.090Z,5.25
2023-02-27T18:31:53.696Z,5.18
2023-02-27T18:34:24.227Z,5.13
2023-02-27T18:36:55.527Z,5.06
2023-02-27T18:39:26.397Z,5.06
2023-02-27T18:41:56.674Z,5.06
2023-02-27T18:44:26.897Z,5.05
2023-02-27T18:46:59.358Z,4.98
2023-02-27T18:49:29.378Z,4.96
2023-02-27T18:51:59.188Z,4.89
2023-02-27T18:54:29.652Z,4.85
2023-02-27T18:57:01.106Z,4.82
2023-02-27T18:59:31.401Z,4.76
2023-02-27T19:02:04.115Z,4.70
2023-02-27T19:04:35.536Z,4.67
2023-02-27T19:07:05.430Z,4.63
2023-02-27T19:09:35.556Z,4.60
2023-02-27T19:12:11.034Z,4.58
2023-02-27T19:14:43.451Z,4.57
2023-02-27T19:17:15.984Z,4.53
2023-02-27T19:19:45.856Z,4.48
2023-02-27T19:22:15.713Z,4.47
2023-02-27T19:24:45.748Z,4.44
2023-02-27T19:27:17.330Z,4.37
2023-02-27T19:29:47.168Z,4.33
2023-02-27T19:32:19.743Z,4.28
2023-02-27T19:34:49.815Z,4.24
2023-02-27T19:37:19.952Z,4.24
2023-02-27T19:39:51.819Z,4.18
2023-02-27T19:42:21.752Z,4.13
2023-02-27T19:44:51.761Z,4.10
2023-02-27T19:47:24.239Z,4.07
2023-02-27T19:49:54.402Z,4.01
2023-02-27T19:52:24.332Z,3.97
2023-02-27T19:54:54.534Z,3.94
2023-02-27T19:57:24.646Z,3.93
2023-02-27T19:59:54.746Z,3.94
2023-02-27T20:02:27.422Z,3.96
2023-02-27T20:04:57.743Z,3.97
2023-02-27T20:07:29.191Z,3.97
2023-02-27T20:09:59.421Z,3.99
2023-02-27T20:12:29.288Z,4.01
2023-02-27T20:14:59.176Z,4.01
2023-02-27T20:17:33.212Z,4.01
2023-02-27T20:20:04.939Z,3.99
2023-02-27T20:22:35.578Z,3.97
2023-02-27T20:25:05.444Z,3.98
2023-02-27T20:27:36.992Z,3.97
2023-02-27T20:30:07.694Z,3.97
2023-02-27T20:32:40.474Z,3.95
2023-02-27T20:35:12.221Z,3.95
2023-02-27T20:37:42.534Z,3.93
2023-02-27T20:40:14.046Z,3.91
2023-02-27T20:42:43.836Z,3.89
2023-02-27T20:45:14.280Z,3.87
2023-02-27T20:47:46.739Z,3.83
2023-02-27T20:50:18.773Z,3.79
2023-02-27T20:52:49.244Z,3.78
2023-02-27T20:55:19.594Z,3.76
2023-02-27T20:57:49.410Z,3.73
2023-02-27T21:00:20.324Z,3.73
2023-02-27T21:02:52.834Z,3.70
2023-02-27T21:05:22.940Z,3.70
2023-02-27T21:07:52.963Z,3.65
2023-02-27T21:10:22.797Z,3.61
2023-02-27T21:12:53.402Z,3.58
2023-02-27T21:15:23.296Z,3.55
2023-02-27T21:17:55.797Z,3.50
2023-02-27T21:20:25.680Z,3.47
2023-02-27T21:22:56.208Z,3.44
2023-02-27T21:25:26.147Z,3.43
2023-02-27T21:28:02.437Z,3.40
2023-02-27T21:30:32.644Z,3.42
2023-02-27T21:33:05.422Z,3.42
2023-02-27T21:35:35.616Z,3.42
2023-02-27T21:38:05.552Z,3.43
2023-02-27T21:40:35.377Z,3.38
2023-02-27T21:43:07.445Z,3.35
2023-02-27T21:45:41.590Z,3.30
2023-02-27T21:48:14.385Z,3.24
2023-02-27T21:50:44.569Z,3.18
2023-02-27T21:53:14.533Z,3.14
2023-02-27T21:55:44.446Z,3.12
2023-02-27T21:58:14.208Z,3.08
2023-02-27T22:00:44.310Z,3.02
2023-02-27T22:03:17.050Z,2.99
2023-02-27T22:05:50.462Z,2.96
2023-02-27T22:08:20.398Z,2.92
2023-02-27T22:10:50.165Z,2.89
2023-02-27T22:13:20.016Z,2.85
2023-02-27T22:15:49.995Z,2.78
2023-02-27T22:18:22.883Z,2.73
2023-02-27T22:20:52.694Z,2.70
2023-02-27T22:23:22.609Z,2.65
2023-02-27T22:26:02.276Z,2.61
2023-02-27T22:28:32.812Z,2.60
2023-02-27T22:31:10.457Z,2.55
2023-02-27T22:33:44.512Z,2.52
2023-02-27T22:36:16.684Z,2.49
2023-02-27T22:38:46.901Z,2.45
2023-02-27T22:41:19.139Z,2.42
2023-02-27T22:43:50.025Z,2.40
2023-02-27T22:46:26.836Z,2.36
2023-02-27T22:49:00.672Z,2.31
2023-02-27T22:51:31.528Z,2.28
2023-02-27T22:54:04.620Z,2.24
2023-02-27T22:56:36.831Z,2.24
2023-02-27T22:59:07.845Z,2.24
2023-02-27T23:01:41.096Z,2.23
2023-02-27T23:04:17.094Z,2.23
2023-02-27T23:06:52.883Z,2.25
2023-02-27T23:09:28.002Z,2.26
2023-02-27T23:11:58.985Z,2.24
2023-02-27T23:14:29.393Z,2.20
2023-02-27T23:17:00.096Z,2.20
2023-02-27T23:19:33.550Z,2.18
2023-02-27T23:22:03.602Z,2.16
2023-02-27T23:24:33.533Z,2.13
2023-02-27T23:27:16.405Z,2.12
2023-02-27T23:29:55.341Z,2.07
2023-02-27T23:32:25.426Z,2.03
2023-02-27T23:34:58.035Z,1.99
2023-02-27T23:37:27.812Z,1.96
2023-02-27T23:39:57.659Z,1.93
2023-02-27T23:42:27.724Z,1.93
2023-02-27T23:44:54.860Z,1.90
2023-02-27T23:47:36.982Z,1.88
2023-02-27T23:50:11.040Z,1.84
2023-02-27T23:52:41.216Z,1.82
2023-02-27T23:55:12.008Z,1.81
2023-02-27T23:57:42.265Z,1.78
